createdAt,value
2019-01-29T00:00:05.878Z,1.44
2019-01-29T00:01:05.302Z,1.44
2019-01-29T00:02:05.522Z,1.44
2019-01-29T00:03:05.714Z,1.44
2019-01-29T00:04:05.327Z,1.38
2019-01-29T00:05:05.270Z,1.44
2019-01-29T00:06:05.366Z,1.38
2019-01-29T00:07:05.860Z,1.38
2019-01-29T00:08:05.144Z,1.44
2019-01-29T00:09:05.683Z,1.44
2019-01-29T00:10:05.784Z,1.44
2019-01-29T00:11:05.849Z,1.38
2019-01-29T00:12:06.189Z,1.38
2019-01-29T00:13:05.473Z,1.38
2019-01-29T00:14:05.793Z,1.38
2019-01-29T00:15:05.931Z,1.38
2019-01-29T00:16:06.112Z,1.38
2019-01-29T00:17:05.600Z,1.38
2019-01-29T00:18:05.230Z,1.38
2019-01-29T00:19:05.369Z,1.38
2019-01-29T00:20:05.554Z,1.31
2019-01-29T00:21:05.218Z,1.31
2019-01-29T00:22:06.343Z,1.31
2019-01-29T00:23:06.000Z,1.31
2019-01-29T00:24:05.523Z,1.31
2019-01-29T00:25:05.863Z,1.31
2019-01-29T00:26:06.017Z,1.31
2019-01-29T00:27:05.302Z,1.31
2019-01-29T00:28:05.544Z,1.31
2019-01-29T00:29:06.007Z,1.31
2019-01-29T00:30:05.634Z,1.31
2019-01-29T00:31:05.787Z,1.25
2019-01-29T00:32:05.847Z,1.25
2019-01-29T00:33:05.073Z,1.25
2019-01-29T00:34:05.470Z,1.25
2019-01-29T00:35:05.517Z,1.25
2019-01-29T00:36:05.123Z,1.25
2019-01-29T00:37:05.453Z,1.25
2019-01-29T00:38:05.700Z,1.25
2019-01-29T00:39:05.931Z,1.25
2019-01-29T00:40:05.470Z,1.25
2019-01-29T00:41:05.522Z,1.25
2019-01-29T00:42:05.262Z,1.25
2019-01-29T00:43:05.294Z,1.25
2019-01-29T00:44:05.481Z,1.25
2019-01-29T00:45:05.535Z,1.25
2019-01-29T00:46:05.651Z,1.25
2019-01-29T00:47:05.628Z,1.25
2019-01-29T00:48:05.954Z,1.25
2019-01-29T00:49:06.007Z,1.25
2019-01-29T00:50:05.738Z,1.25
2019-01-29T00:51:05.673Z,1.25
2019-01-29T00:52:05.886Z,1.25
2019-01-29T00:53:05.853Z,1.25
2019-01-29T00:54:05.548Z,1.25
2019-01-29T00:55:06.830Z,1.25
2019-01-29T00:56:05.067Z,1.25
2019-01-29T00:57:05.130Z,1.25
2019-01-29T00:58:05.221Z,1.25
2019-01-29T00:59:05.537Z,1.25
2019-01-29T01:00:05.626Z,1.25
2019-01-29T01:01:06.042Z,1.25
2019-01-29T01:02:05.223Z,1.25
2019-01-29T01:03:05.841Z,1.25
2019-01-29T01:04:05.392Z,1.25
2019-01-29T01:05:05.531Z,1.25
2019-01-29T01:06:05.701Z,1.25
2019-01-29T01:07:05.853Z,1.25
2019-01-29T01:08:05.949Z,1.25
2019-01-29T01:09:05.442Z,1.25
2019-01-29T01:10:05.956Z,1.19
2019-01-29T01:11:05.294Z,1.19
2019-01-29T01:12:05.410Z,1.19
2019-01-29T01:13:05.956Z,1.19
2019-01-29T01:14:05.211Z,1.19
2019-01-29T01:15:05.397Z,1.19
2019-01-29T01:16:05.790Z,1.12
2019-01-29T01:17:05.870Z,1.12
2019-01-29T01:18:05.889Z,1.12
2019-01-29T01:19:06.019Z,1.12
2019-01-29T01:20:06.024Z,1.12
2019-01-29T01:21:05.617Z,1.12
2019-01-29T01:22:05.239Z,1.12
2019-01-29T01:23:05.590Z,1.06
2019-01-29T01:24:05.363Z,1.06
2019-01-29T01:25:05.723Z,1.06
2019-01-29T01:26:05.623Z,1.06
2019-01-29T01:27:05.951Z,1.06
2019-01-29T01:28:05.319Z,1.06
2019-01-29T01:29:05.298Z,1.00
2019-01-29T01:30:06.611Z,1.00
2019-01-29T01:31:05.925Z,1.00
2019-01-29T01:32:05.961Z,1.00
2019-01-29T01:33:05.049Z,1.00
2019-01-29T01:34:05.233Z,1.00
2019-01-29T01:35:05.378Z,1.00
2019-01-29T01:36:05.774Z,0.94
2019-01-29T01:37:05.057Z,0.94
2019-01-29T01:38:05.235Z,0.94
2019-01-29T01:39:05.227Z,0.94
2019-01-29T01:40:05.387Z,0.94
2019-01-29T01:41:05.368Z,0.94
2019-01-29T01:42:05.763Z,0.94
2019-01-29T01:43:05.134Z,0.88
2019-01-29T01:44:05.599Z,0.88
2019-01-29T01:45:06.107Z,0.94
2019-01-29T01:46:05.136Z,0.88
2019-01-29T01:47:05.613Z,0.88
2019-01-29T01:48:05.961Z,0.88
2019-01-29T01:49:05.357Z,0.88
2019-01-29T01:50:05.936Z,0.88
2019-01-29T01:51:05.378Z,0.88
2019-01-29T01:52:05.360Z,0.88
2019-01-29T01:53:05.601Z,0.88
2019-01-29T01:54:05.059Z,0.81
2019-01-29T01:55:05.866Z,0.88
2019-01-29T01:56:05.865Z,0.81
2019-01-29T01:57:05.392Z,0.81
2019-01-29T01:58:05.544Z,0.81
2019-01-29T01:59:05.141Z,0.81
2019-01-29T02:00:05.708Z,0.81
2019-01-29T02:01:05.706Z,0.81
2019-01-29T02:02:05.941Z,0.75
2019-01-29T02:03:05.058Z,0.75
2019-01-29T02:04:05.226Z,0.75
2019-01-29T02:05:05.869Z,0.75
2019-01-29T02:06:05.937Z,0.75
2019-01-29T02:07:07.144Z,0.75
2019-01-29T02:08:05.463Z,0.69
2019-01-29T02:09:05.712Z,0.69
2019-01-29T02:10:05.926Z,0.75
2019-01-29T02:11:05.260Z,0.69
2019-01-29T02:12:05.566Z,0.69
2019-01-29T02:13:05.862Z,0.69
2019-01-29T02:14:05.714Z,0.69
2019-01-29T02:15:05.699Z,0.69
2019-01-29T02:16:05.719Z,0.69
2019-01-29T02:17:05.854Z,0.62
2019-01-29T02:18:05.418Z,0.62
2019-01-29T02:19:05.471Z,0.62
2019-01-29T02:20:05.475Z,0.62
2019-01-29T02:21:05.957Z,0.62
2019-01-29T02:22:05.295Z,0.62
2019-01-29T02:23:07.957Z,0.62
2019-01-29T02:24:05.857Z,0.62
2019-01-29T02:25:05.135Z,0.62
2019-01-29T02:26:05.361Z,0.56
2019-01-29T02:27:05.710Z,0.56
2019-01-29T02:28:05.706Z,0.56
2019-01-29T02:29:05.857Z,0.56
2019-01-29T02:30:05.409Z,0.56
2019-01-29T02:31:05.550Z,0.56
2019-01-29T02:32:05.950Z,0.56
2019-01-29T02:33:05.538Z,0.56
2019-01-29T02:34:05.664Z,0.56
2019-01-29T02:35:05.390Z,0.56
2019-01-29T02:36:05.703Z,0.56
2019-01-29T02:37:05.149Z,0.56
2019-01-29T02:38:05.165Z,0.56
2019-01-29T02:39:05.601Z,0.56
2019-01-29T02:40:05.347Z,0.50
2019-01-29T02:41:05.755Z,0.50
2019-01-29T02:42:05.633Z,0.50
2019-01-29T02:43:05.533Z,0.50
2019-01-29T02:44:05.622Z,0.50
2019-01-29T02:45:05.871Z,0.50
2019-01-29T02:46:06.029Z,0.50
2019-01-29T02:47:05.517Z,0.50
2019-01-29T02:48:05.634Z,0.50
2019-01-29T02:49:05.296Z,0.50
2019-01-29T02:50:05.707Z,0.50
2019-01-29T02:51:05.227Z,0.50
2019-01-29T02:52:05.389Z,0.50
2019-01-29T02:53:05.833Z,0.50
2019-01-29T02:54:05.871Z,0.50
2019-01-29T02:55:05.287Z,0.44
2019-01-29T02:56:05.599Z,0.44
2019-01-29T02:57:05.866Z,0.44
2019-01-29T02:58:05.081Z,0.44
2019-01-29T02:59:05.683Z,0.44
2019-01-29T03:00:05.239Z,0.44
2019-01-29T03:01:05.201Z,0.44
2019-01-29T03:02:05.632Z,0.44
2019-01-29T03:03:05.695Z,0.44
2019-01-29T03:04:05.788Z,0.44
2019-01-29T03:05:05.934Z,0.44
2019-01-29T03:06:05.067Z,0.44
2019-01-29T03:07:05.693Z,0.44
2019-01-29T03:08:05.394Z,0.44
2019-01-29T03:09:05.709Z,0.44
2019-01-29T03:10:05.406Z,0.44
2019-01-29T03:11:05.703Z,0.44
2019-01-29T03:12:05.965Z,0.44
2019-01-29T03:13:05.197Z,0.44
2019-01-29T03:14:05.861Z,0.44
2019-01-29T03:15:05.283Z,0.44
2019-01-29T03:16:06.041Z,0.44
2019-01-29T03:17:05.228Z,0.38
2019-01-29T03:18:05.343Z,0.44
2019-01-29T03:19:05.309Z,0.38
2019-01-29T03:20:05.543Z,0.38
2019-01-29T03:21:05.212Z,0.38
2019-01-29T03:22:05.525Z,0.38
2019-01-29T03:23:05.860Z,0.38
2019-01-29T03:24:05.312Z,0.38
2019-01-29T03:25:05.473Z,0.38
2019-01-29T03:26:05.406Z,0.38
2019-01-29T03:27:05.204Z,0.38
2019-01-29T03:28:05.248Z,0.38
2019-01-29T03:29:05.290Z,0.38
2019-01-29T03:30:05.629Z,0.38
2019-01-29T03:31:05.129Z,0.38
2019-01-29T03:32:05.296Z,0.38
2019-01-29T03:33:05.446Z,0.38
2019-01-29T03:34:05.157Z,0.31
2019-01-29T03:35:05.337Z,0.31
2019-01-29T03:36:06.023Z,0.31
2019-01-29T03:37:05.512Z,0.31
2019-01-29T03:38:06.021Z,0.31
2019-01-29T03:39:05.118Z,0.31
2019-01-29T03:40:05.794Z,0.31
2019-01-29T03:41:05.161Z,0.31
2019-01-29T03:42:05.371Z,0.31
2019-01-29T03:43:05.794Z,0.31
2019-01-29T03:44:05.243Z,0.31
2019-01-29T03:45:05.307Z,0.31
2019-01-29T03:46:05.327Z,0.31
2019-01-29T03:47:05.541Z,0.25
2019-01-29T03:48:06.054Z,0.25
2019-01-29T03:49:05.192Z,0.25
2019-01-29T03:50:05.547Z,0.25
2019-01-29T03:51:06.103Z,0.25
2019-01-29T03:52:06.112Z,0.19
2019-01-29T03:53:05.143Z,0.19
2019-01-29T03:54:05.627Z,0.19
2019-01-29T03:55:05.219Z,0.19
2019-01-29T03:56:05.310Z,0.19
2019-01-29T03:57:05.324Z,0.19
2019-01-29T03:58:05.552Z,0.19
2019-01-29T03:59:05.155Z,0.19
2019-01-29T04:00:05.840Z,0.19
2019-01-29T04:01:05.049Z,0.19
2019-01-29T04:02:05.707Z,0.19
2019-01-29T04:03:05.307Z,0.19
2019-01-29T04:04:05.638Z,0.19
2019-01-29T04:05:05.932Z,0.12
2019-01-29T04:06:05.064Z,0.12
2019-01-29T04:07:05.139Z,0.12
2019-01-29T04:08:05.804Z,0.12
2019-01-29T04:09:05.953Z,0.12
2019-01-29T04:10:06.036Z,0.12
2019-01-29T04:11:05.032Z,0.12
2019-01-29T04:12:05.621Z,0.12
2019-01-29T04:13:06.099Z,0.12
2019-01-29T04:14:05.208Z,0.12
2019-01-29T04:15:05.533Z,0.12
2019-01-29T04:16:05.483Z,0.12
2019-01-29T04:17:05.918Z,0.12
2019-01-29T04:18:05.538Z,0.12
2019-01-29T04:19:05.686Z,0.12
2019-01-29T04:20:05.887Z,0.12
2019-01-29T04:21:05.864Z,0.12
2019-01-29T04:22:05.929Z,0.12
2019-01-29T04:23:05.220Z,0.12
2019-01-29T04:24:05.228Z,0.12
2019-01-29T04:25:05.871Z,0.06
2019-01-29T04:26:05.968Z,0.12
2019-01-29T04:27:05.366Z,0.06
2019-01-29T04:28:05.464Z,0.06
2019-01-29T04:29:05.797Z,0.06
2019-01-29T04:30:07.007Z,0.06
2019-01-29T04:31:05.282Z,0.06
2019-01-29T04:32:05.488Z,0.06
2019-01-29T04:33:05.373Z,0.06
2019-01-29T04:34:05.948Z,0.06
2019-01-29T04:35:05.786Z,0.06
2019-01-29T04:36:05.068Z,0.06
2019-01-29T04:37:05.552Z,0.06
2019-01-29T04:38:05.954Z,0.06
2019-01-29T04:39:05.995Z,0.06
2019-01-29T04:40:05.553Z,0.06
2019-01-29T04:41:05.621Z,0.06
2019-01-29T04:42:05.701Z,0.06
2019-01-29T04:43:05.209Z,0.06
2019-01-29T04:44:05.383Z,0.06
2019-01-29T04:45:05.135Z,0.06
2019-01-29T04:46:05.239Z,0.06
2019-01-29T04:47:05.194Z,0.06
2019-01-29T04:48:05.847Z,0.06
2019-01-29T04:49:05.132Z,0.06
2019-01-29T04:50:05.628Z,0.06
2019-01-29T04:51:05.871Z,0.06
2019-01-29T04:52:05.081Z,0.06
2019-01-29T04:53:05.824Z,0.06
2019-01-29T04:54:05.783Z,0.12
2019-01-29T04:55:05.462Z,0.12
2019-01-29T04:56:05.544Z,0.06
2019-01-29T04:57:05.131Z,0.12
2019-01-29T04:58:05.229Z,0.12
2019-01-29T04:59:05.931Z,0.12
2019-01-29T05:00:05.084Z,0.12
2019-01-29T05:01:05.764Z,0.12
2019-01-29T05:02:05.155Z,0.12
2019-01-29T05:03:05.292Z,0.12
2019-01-29T05:04:05.786Z,0.12
2019-01-29T05:05:05.536Z,0.12
2019-01-29T05:06:05.930Z,0.12
2019-01-29T05:07:05.150Z,0.12
2019-01-29T05:08:05.471Z,0.12
2019-01-29T05:09:05.038Z,0.12
2019-01-29T05:10:05.322Z,0.12
2019-01-29T05:11:06.169Z,0.12
2019-01-29T05:12:05.469Z,0.12
2019-01-29T05:13:06.410Z,0.12
2019-01-29T05:14:05.592Z,0.12
2019-01-29T05:15:05.785Z,0.12
2019-01-29T05:16:05.946Z,0.12
2019-01-29T05:17:05.529Z,0.12
2019-01-29T05:18:05.520Z,0.12
2019-01-29T05:19:05.697Z,0.12
2019-01-29T05:20:05.959Z,0.12
2019-01-29T05:21:05.947Z,0.12
2019-01-29T05:22:05.337Z,0.12
2019-01-29T05:23:05.774Z,0.12
2019-01-29T05:24:06.748Z,0.12
2019-01-29T05:25:06.253Z,0.12
2019-01-29T05:26:05.794Z,0.12
2019-01-29T05:27:05.881Z,0.12
2019-01-29T05:28:06.109Z,0.12
2019-01-29T05:29:05.202Z,0.12
2019-01-29T05:30:05.796Z,0.06
2019-01-29T05:31:05.860Z,0.06
2019-01-29T05:32:05.960Z,0.06
2019-01-29T05:33:05.373Z,0.06
2019-01-29T05:34:05.786Z,0.06
2019-01-29T05:35:06.030Z,0.00
2019-01-29T05:36:05.564Z,0.00
2019-01-29T05:37:05.620Z,0.00
2019-01-29T05:38:05.238Z,-0.06
2019-01-29T05:39:05.516Z,-0.06
2019-01-29T05:40:05.727Z,-0.06
2019-01-29T05:41:05.770Z,-0.12
2019-01-29T05:42:05.776Z,-0.06
2019-01-29T05:43:05.148Z,-0.12
2019-01-29T05:44:05.151Z,-0.12
2019-01-29T05:45:05.796Z,-0.12
2019-01-29T05:46:05.062Z,-0.12
2019-01-29T05:47:05.377Z,-0.19
2019-01-29T05:48:05.384Z,-0.19
2019-01-29T05:49:05.598Z,-0.19
2019-01-29T05:50:05.068Z,-0.25
2019-01-29T05:51:05.681Z,-0.25
2019-01-29T05:52:05.232Z,-0.25
2019-01-29T05:53:05.714Z,-0.31
2019-01-29T05:54:05.874Z,-0.31
2019-01-29T05:55:05.872Z,-0.38
2019-01-29T05:56:06.030Z,-0.38
2019-01-29T05:57:05.127Z,-0.38
2019-01-29T05:58:05.722Z,-0.38
2019-01-29T05:59:05.846Z,-0.44
2019-01-29T06:00:05.144Z,-0.44
2019-01-29T06:01:05.449Z,-0.44
2019-01-29T06:02:05.530Z,-0.50
2019-01-29T06:03:05.897Z,-0.50
2019-01-29T06:04:05.534Z,-0.50
2019-01-29T06:05:05.376Z,-0.56
2019-01-29T06:06:05.782Z,-0.56
2019-01-29T06:07:05.138Z,-0.56
2019-01-29T06:08:05.437Z,-0.62
2019-01-29T06:09:06.108Z,-0.62
2019-01-29T06:10:05.063Z,-0.62
2019-01-29T06:11:05.602Z,-0.69
2019-01-29T06:12:05.630Z,-0.69
2019-01-29T06:13:05.287Z,-0.69
2019-01-29T06:14:05.874Z,-0.75
2019-01-29T06:15:05.278Z,-0.75
2019-01-29T06:16:05.396Z,-0.75
2019-01-29T06:17:06.017Z,-0.75
2019-01-29T06:18:06.040Z,-0.75
2019-01-29T06:19:05.618Z,-0.81
2019-01-29T06:20:06.183Z,-0.81
2019-01-29T06:21:05.362Z,-0.81
2019-01-29T06:22:05.163Z,-0.81
2019-01-29T06:23:05.217Z,-0.81
2019-01-29T06:24:06.054Z,-0.81
2019-01-29T06:25:06.108Z,-0.81
2019-01-29T06:26:05.385Z,-0.81
2019-01-29T06:27:05.709Z,-0.81
2019-01-29T06:28:05.713Z,-0.81
2019-01-29T06:29:06.105Z,-0.81
2019-01-29T06:30:05.514Z,-0.81
2019-01-29T06:31:05.795Z,-0.88
2019-01-29T06:32:05.143Z,-0.88
2019-01-29T06:33:05.304Z,-0.81
2019-01-29T06:34:05.466Z,-0.81
2019-01-29T06:35:05.638Z,-0.81
2019-01-29T06:36:05.546Z,-0.81
2019-01-29T06:37:05.695Z,-0.81
2019-01-29T06:38:05.867Z,-0.81
2019-01-29T06:39:05.536Z,-0.81
2019-01-29T06:40:05.229Z,-0.81
2019-01-29T06:41:05.369Z,-0.75
2019-01-29T06:42:05.922Z,-0.75
2019-01-29T06:43:05.229Z,-0.75
2019-01-29T06:44:05.230Z,-0.75
2019-01-29T06:45:05.796Z,-0.75
2019-01-29T06:46:05.129Z,-0.75
2019-01-29T06:47:05.292Z,-0.75
2019-01-29T06:48:05.871Z,-0.75
2019-01-29T06:49:05.548Z,-0.75
2019-01-29T06:50:06.032Z,-0.69
2019-01-29T06:51:05.626Z,-0.69
2019-01-29T06:52:05.865Z,-0.69
2019-01-29T06:53:05.454Z,-0.69
2019-01-29T06:54:05.548Z,-0.69
2019-01-29T06:55:05.782Z,-0.62
2019-01-29T06:56:05.888Z,-0.62
2019-01-29T06:57:06.107Z,-0.62
2019-01-29T06:58:05.162Z,-0.62
2019-01-29T06:59:05.302Z,-0.62
2019-01-29T07:00:05.390Z,-0.62
2019-01-29T07:01:06.072Z,-0.62
2019-01-29T07:02:06.005Z,-0.62
2019-01-29T07:03:05.367Z,-0.56
2019-01-29T07:04:05.869Z,-0.56
2019-01-29T07:05:05.615Z,-0.56
2019-01-29T07:06:06.048Z,-0.56
2019-01-29T07:07:05.064Z,-0.56
2019-01-29T07:08:05.207Z,-0.56
2019-01-29T07:09:05.442Z,-0.50
2019-01-29T07:10:05.957Z,-0.50
2019-01-29T07:11:05.470Z,-0.50
2019-01-29T07:12:05.358Z,-0.50
2019-01-29T07:13:05.624Z,-0.50
2019-01-29T07:14:05.945Z,-0.44
2019-01-29T07:15:05.155Z,-0.44
2019-01-29T07:16:05.565Z,-0.44
2019-01-29T07:17:06.015Z,-0.44
2019-01-29T07:18:05.116Z,-0.44
2019-01-29T07:19:05.474Z,-0.38
2019-01-29T07:20:05.568Z,-0.38
2019-01-29T07:21:05.749Z,-0.38
2019-01-29T07:22:05.726Z,-0.38
2019-01-29T07:23:05.275Z,-0.38
2019-01-29T07:24:05.720Z,-0.38
2019-01-29T07:25:05.368Z,-0.31
2019-01-29T07:26:05.690Z,-0.31
2019-01-29T07:27:05.034Z,-0.31
2019-01-29T07:28:05.554Z,-0.31
2019-01-29T07:29:05.352Z,-0.31
2019-01-29T07:30:05.623Z,-0.25
2019-01-29T07:31:05.210Z,-0.25
2019-01-29T07:32:05.472Z,-0.25
2019-01-29T07:33:05.525Z,-0.25
2019-01-29T07:34:06.025Z,-0.19
2019-01-29T07:35:05.597Z,-0.19
2019-01-29T07:36:05.309Z,-0.19
2019-01-29T07:37:05.788Z,-0.19
2019-01-29T07:38:05.874Z,-0.12
2019-01-29T07:39:05.847Z,-0.12
2019-01-29T07:40:05.964Z,-0.12
2019-01-29T07:41:05.640Z,-0.12
2019-01-29T07:42:05.866Z,-0.06
2019-01-29T07:43:05.280Z,-0.06
2019-01-29T07:44:06.019Z,-0.06
2019-01-29T07:45:05.697Z,-0.06
2019-01-29T07:46:05.811Z,0.00
2019-01-29T07:47:06.828Z,0.00
2019-01-29T07:48:05.064Z,0.00
2019-01-29T07:49:05.608Z,0.06
2019-01-29T07:50:05.198Z,0.06
2019-01-29T07:51:05.399Z,0.06
2019-01-29T07:52:05.806Z,0.06
2019-01-29T07:53:05.857Z,0.12
2019-01-29T07:54:05.465Z,0.12
2019-01-29T07:55:05.151Z,0.12
2019-01-29T07:56:05.233Z,0.19
2019-01-29T07:57:05.208Z,0.19
2019-01-29T07:58:05.394Z,0.19
2019-01-29T07:59:05.055Z,0.25
2019-01-29T08:00:05.864Z,0.25
2019-01-29T08:01:05.221Z,0.25
2019-01-29T08:02:05.392Z,0.25
2019-01-29T08:03:05.532Z,0.31
2019-01-29T08:04:05.657Z,0.31
2019-01-29T08:05:05.384Z,0.31
2019-01-29T08:06:05.631Z,0.31
2019-01-29T08:07:05.846Z,0.38
2019-01-29T08:08:05.415Z,0.38
2019-01-29T08:09:05.462Z,0.38
2019-01-29T08:10:05.150Z,0.44
2019-01-29T08:11:05.604Z,0.44
2019-01-29T08:12:05.805Z,0.44
2019-01-29T08:13:05.357Z,0.44
2019-01-29T08:14:06.125Z,0.50
2019-01-29T08:15:05.054Z,0.50
2019-01-29T08:16:05.226Z,0.50
2019-01-29T08:17:05.465Z,0.56
2019-01-29T08:18:05.536Z,0.56
2019-01-29T08:19:05.770Z,0.62
2019-01-29T08:20:05.950Z,0.62
2019-01-29T08:21:05.870Z,0.62
2019-01-29T08:22:06.936Z,0.69
2019-01-29T08:23:05.211Z,0.69
2019-01-29T08:24:06.039Z,0.69
2019-01-29T08:25:05.652Z,0.69
2019-01-29T08:26:05.223Z,0.75
2019-01-29T08:27:05.704Z,0.75
2019-01-29T08:28:05.784Z,0.75
2019-01-29T08:29:05.882Z,0.81
2019-01-29T08:30:05.471Z,0.81
2019-01-29T08:31:05.945Z,0.81
2019-01-29T08:32:06.023Z,0.88
2019-01-29T08:33:05.070Z,0.88
2019-01-29T08:34:05.302Z,0.94
2019-01-29T08:35:05.712Z,0.94
2019-01-29T08:36:06.126Z,0.94
2019-01-29T08:37:05.627Z,1.00
2019-01-29T08:38:05.707Z,1.00
2019-01-29T08:39:05.200Z,1.06
2019-01-29T08:40:05.247Z,1.06
2019-01-29T08:41:05.211Z,1.12
2019-01-29T08:42:05.838Z,1.12
2019-01-29T08:43:06.097Z,1.19
2019-01-29T08:44:05.233Z,1.19
2019-01-29T08:45:05.310Z,1.19
2019-01-29T08:46:05.511Z,1.25
2019-01-29T08:47:05.856Z,1.25
2019-01-29T08:48:05.938Z,1.31
2019-01-29T08:49:05.205Z,1.31
2019-01-29T08:50:05.199Z,1.38
2019-01-29T08:51:05.448Z,1.38
2019-01-29T08:52:05.856Z,1.38
2019-01-29T08:53:05.117Z,1.44
2019-01-29T08:54:05.529Z,1.44
2019-01-29T08:55:10.687Z,1.50
2019-01-29T08:56:05.469Z,1.50
2019-01-29T08:57:05.621Z,1.56
2019-01-29T08:58:05.791Z,1.56
2019-01-29T08:59:05.445Z,1.56
2019-01-29T09:00:05.866Z,1.62
2019-01-29T09:01:05.622Z,1.62
2019-01-29T09:02:05.714Z,1.69
2019-01-29T09:03:05.799Z,1.69
2019-01-29T09:04:05.062Z,1.69
2019-01-29T09:05:05.123Z,1.75
2019-01-29T09:06:05.396Z,1.75
2019-01-29T09:07:05.302Z,1.81
2019-01-29T09:08:06.015Z,1.88
2019-01-29T09:09:05.618Z,1.88
2019-01-29T09:10:05.892Z,1.94
2019-01-29T09:11:05.956Z,1.94
2019-01-29T09:12:05.952Z,2.00
2019-01-29T09:13:05.782Z,2.00
2019-01-29T09:14:05.790Z,2.06
2019-01-29T09:15:05.546Z,2.06
2019-01-29T09:16:05.533Z,2.12
2019-01-29T09:17:05.851Z,2.12
2019-01-29T09:18:05.953Z,2.19
2019-01-29T09:19:05.045Z,2.19
2019-01-29T09:20:05.309Z,2.25
2019-01-29T09:21:05.365Z,2.25
2019-01-29T09:22:05.551Z,2.31
2019-01-29T09:23:06.000Z,2.31
2019-01-29T09:24:05.790Z,2.38
2019-01-29T09:25:05.869Z,2.38
2019-01-29T09:26:05.235Z,2.44
2019-01-29T09:27:05.520Z,2.44
2019-01-29T09:28:06.918Z,2.50
2019-01-29T09:29:05.154Z,2.50
2019-01-29T09:30:05.938Z,2.50
2019-01-29T09:31:05.215Z,2.56
2019-01-29T09:32:05.962Z,2.56
2019-01-29T09:33:06.094Z,2.62
2019-01-29T09:34:05.162Z,2.62
2019-01-29T09:35:05.223Z,2.62
2019-01-29T09:36:05.364Z,2.69
2019-01-29T09:37:05.519Z,2.69
2019-01-29T09:38:06.043Z,2.69
2019-01-29T09:39:05.136Z,2.75
2019-01-29T09:40:05.237Z,2.75
2019-01-29T09:41:05.456Z,2.75
2019-01-29T09:42:05.372Z,2.75
2019-01-29T09:43:05.530Z,2.81
2019-01-29T09:44:06.026Z,2.81
2019-01-29T09:45:05.038Z,2.81
2019-01-29T09:46:05.653Z,2.81
2019-01-29T09:47:05.278Z,2.88
2019-01-29T09:48:05.476Z,2.88
2019-01-29T09:49:05.946Z,2.88
2019-01-29T09:50:05.863Z,2.88
2019-01-29T09:51:05.385Z,2.88
2019-01-29T09:52:05.458Z,2.88
2019-01-29T09:53:05.941Z,2.94
2019-01-29T09:54:05.864Z,2.94
2019-01-29T09:55:05.306Z,2.94
2019-01-29T09:56:05.555Z,2.94
2019-01-29T09:57:05.604Z,3.00
2019-01-29T09:58:05.626Z,3.00
2019-01-29T09:59:05.286Z,3.00
2019-01-29T10:00:05.293Z,3.00
2019-01-29T10:01:05.550Z,3.06
2019-01-29T10:02:05.773Z,3.06
2019-01-29T10:03:05.158Z,3.06
2019-01-29T10:04:05.730Z,3.06
2019-01-29T10:05:05.809Z,3.12
2019-01-29T10:06:05.551Z,3.12
2019-01-29T10:07:06.025Z,3.12
2019-01-29T10:08:05.999Z,3.12
2019-01-29T10:09:05.401Z,3.12
2019-01-29T10:10:05.648Z,3.12
2019-01-29T10:11:05.798Z,3.19
2019-01-29T10:12:05.066Z,3.19
2019-01-29T10:13:05.131Z,3.19
2019-01-29T10:14:05.955Z,3.19
2019-01-29T10:15:05.358Z,3.25
2019-01-29T10:16:06.132Z,3.25
2019-01-29T10:17:05.215Z,3.25
2019-01-29T10:18:05.314Z,3.25
2019-01-29T10:19:06.026Z,3.25
2019-01-29T10:20:05.159Z,3.25
2019-01-29T10:21:05.222Z,3.25
2019-01-29T10:22:05.207Z,3.25
2019-01-29T10:23:05.455Z,3.25
2019-01-29T10:24:05.786Z,3.25
2019-01-29T10:25:05.376Z,3.31
2019-01-29T10:26:06.044Z,3.31
2019-01-29T10:27:05.924Z,3.31
2019-01-29T10:28:05.067Z,3.31
2019-01-29T10:29:05.798Z,3.31
2019-01-29T10:30:05.123Z,3.31
2019-01-29T10:31:05.536Z,3.31
2019-01-29T10:32:05.322Z,3.38
2019-01-29T10:33:05.301Z,3.38
2019-01-29T10:34:05.802Z,3.38
2019-01-29T10:35:05.336Z,3.38
2019-01-29T10:36:05.572Z,3.38
2019-01-29T10:37:05.595Z,3.38
2019-01-29T10:38:05.783Z,3.38
2019-01-29T10:39:05.536Z,3.38
2019-01-29T10:40:05.704Z,3.38
2019-01-29T10:41:05.951Z,3.44
2019-01-29T10:42:06.081Z,3.44
2019-01-29T10:43:05.596Z,3.44
2019-01-29T10:44:05.223Z,3.44
2019-01-29T10:45:05.458Z,3.50
2019-01-29T10:46:05.475Z,3.50
2019-01-29T10:47:05.551Z,3.50
2019-01-29T10:48:05.711Z,3.50
2019-01-29T10:49:05.711Z,3.50
2019-01-29T10:50:05.944Z,3.56
2019-01-29T10:51:06.005Z,3.56
2019-01-29T10:52:05.150Z,3.56
2019-01-29T10:53:05.721Z,3.56
2019-01-29T10:54:05.100Z,3.62
2019-01-29T10:55:05.204Z,3.62
2019-01-29T10:56:05.458Z,3.62
2019-01-29T10:57:05.042Z,3.69
2019-01-29T10:58:05.235Z,3.69
2019-01-29T10:59:05.461Z,3.69
2019-01-29T11:00:05.637Z,3.75
2019-01-29T11:01:05.535Z,3.75
2019-01-29T11:02:05.640Z,3.75
2019-01-29T11:03:05.883Z,3.75
2019-01-29T11:04:05.329Z,3.81
2019-01-29T11:05:05.759Z,3.81
2019-01-29T11:06:05.945Z,3.81
2019-01-29T11:07:05.381Z,3.81
2019-01-29T11:08:05.929Z,3.88
2019-01-29T11:09:05.301Z,3.88
2019-01-29T11:10:05.165Z,3.88
2019-01-29T11:11:05.771Z,3.94
2019-01-29T11:12:05.406Z,3.94
2019-01-29T11:13:07.297Z,3.94
2019-01-29T11:14:05.882Z,3.94
2019-01-29T11:15:05.867Z,4.00
2019-01-29T11:16:06.052Z,4.00
2019-01-29T11:17:05.996Z,4.00
2019-01-29T11:18:05.626Z,4.06
2019-01-29T11:19:05.038Z,4.06
2019-01-29T11:20:05.629Z,4.06
2019-01-29T11:21:05.704Z,4.12
2019-01-29T11:22:05.879Z,4.12
2019-01-29T11:23:06.131Z,4.12
2019-01-29T11:24:05.528Z,4.12
2019-01-29T11:25:05.767Z,4.19
2019-01-29T11:26:05.955Z,4.19
2019-01-29T11:27:06.094Z,4.19
2019-01-29T11:28:05.143Z,4.19
2019-01-29T11:29:05.801Z,4.25
2019-01-29T11:30:05.059Z,4.25
2019-01-29T11:31:05.617Z,4.25
2019-01-29T11:32:05.684Z,4.25
2019-01-29T11:33:06.006Z,4.25
2019-01-29T11:34:05.446Z,4.25
2019-01-29T11:35:05.778Z,4.25
2019-01-29T11:36:06.024Z,4.25
2019-01-29T11:37:05.240Z,4.31
2019-01-29T11:38:05.847Z,4.31
2019-01-29T11:39:05.133Z,4.31
2019-01-29T11:40:05.711Z,4.38
2019-01-29T11:41:05.130Z,4.38
2019-01-29T11:42:05.378Z,4.38
2019-01-29T11:43:05.532Z,4.38
2019-01-29T11:44:05.663Z,4.38
2019-01-29T11:45:05.119Z,4.38
2019-01-29T11:46:05.873Z,4.38
2019-01-29T11:47:06.576Z,4.38
2019-01-29T11:48:05.147Z,4.38
2019-01-29T11:49:05.297Z,4.44
2019-01-29T11:50:05.710Z,4.44
2019-01-29T11:51:05.254Z,4.44
2019-01-29T11:52:05.456Z,4.44
2019-01-29T11:53:05.759Z,4.44
2019-01-29T11:54:06.032Z,4.44
2019-01-29T11:55:06.041Z,4.44
2019-01-29T11:56:05.218Z,4.44
2019-01-29T11:57:05.691Z,4.44
2019-01-29T11:58:05.775Z,4.44
2019-01-29T11:59:06.008Z,4.44
2019-01-29T12:00:05.047Z,4.44
2019-01-29T12:01:05.455Z,4.44
2019-01-29T12:02:05.632Z,4.44
2019-01-29T12:03:06.016Z,4.38
2019-01-29T12:04:06.756Z,4.44
2019-01-29T12:05:05.222Z,4.38
2019-01-29T12:06:05.719Z,4.38
2019-01-29T12:07:05.847Z,4.38
2019-01-29T12:08:05.932Z,4.38
2019-01-29T12:09:05.940Z,4.38
2019-01-29T12:10:05.166Z,4.38
2019-01-29T12:11:05.198Z,4.38
2019-01-29T12:12:05.871Z,4.38
2019-01-29T12:13:05.050Z,4.38
2019-01-29T12:14:05.149Z,4.38
2019-01-29T12:15:05.608Z,4.31
2019-01-29T12:16:05.216Z,4.31
2019-01-29T12:17:05.451Z,4.31
2019-01-29T12:18:05.724Z,4.31
2019-01-29T12:19:05.212Z,4.31
2019-01-29T12:20:05.392Z,4.31
2019-01-29T12:21:05.624Z,4.31
2019-01-29T12:22:06.517Z,4.31
2019-01-29T12:23:05.861Z,4.31
2019-01-29T12:24:05.774Z,4.25
2019-01-29T12:25:05.144Z,4.25
2019-01-29T12:26:12.873Z,4.25
2019-01-29T12:27:05.696Z,4.25
2019-01-29T12:28:05.309Z,4.25
2019-01-29T12:29:05.960Z,4.25
2019-01-29T12:30:05.311Z,4.25
2019-01-29T12:31:05.388Z,4.19
2019-01-29T12:32:05.635Z,4.19
2019-01-29T12:33:05.723Z,4.19
2019-01-29T12:34:05.971Z,4.12
2019-01-29T12:35:06.021Z,4.12
2019-01-29T12:36:06.211Z,4.12
2019-01-29T12:37:05.122Z,4.12
2019-01-29T12:38:05.711Z,4.06
2019-01-29T12:39:05.768Z,4.06
2019-01-29T12:40:06.120Z,4.06
2019-01-29T12:41:06.203Z,4.06
2019-01-29T12:42:05.117Z,4.00
2019-01-29T12:43:05.471Z,4.00
2019-01-29T12:44:05.450Z,4.00
2019-01-29T12:45:05.789Z,4.00
2019-01-29T12:46:05.223Z,4.00
2019-01-29T12:47:05.385Z,3.94
2019-01-29T12:48:05.456Z,4.00
2019-01-29T12:49:05.699Z,3.94
2019-01-29T12:50:05.808Z,3.94
2019-01-29T12:51:05.117Z,3.94
2019-01-29T12:52:05.443Z,3.94
2019-01-29T12:53:05.454Z,4.00
2019-01-29T12:54:05.429Z,4.00
2019-01-29T12:55:05.792Z,4.00
2019-01-29T12:56:05.203Z,4.00
2019-01-29T12:57:05.519Z,4.00
2019-01-29T12:58:06.036Z,4.00
2019-01-29T12:59:05.920Z,4.00
2019-01-29T13:00:05.089Z,4.00
2019-01-29T13:01:05.155Z,4.00
2019-01-29T13:02:05.306Z,4.00
2019-01-29T13:03:06.018Z,4.00
2019-01-29T13:04:06.014Z,4.00
2019-01-29T13:05:05.162Z,4.00
2019-01-29T13:06:05.400Z,4.00
2019-01-29T13:07:05.621Z,4.06
2019-01-29T13:08:05.626Z,4.06
2019-01-29T13:09:05.355Z,4.06
2019-01-29T13:10:05.791Z,4.06
2019-01-29T13:11:05.945Z,4.06
2019-01-29T13:12:06.038Z,4.06
2019-01-29T13:13:05.461Z,4.06
2019-01-29T13:14:05.796Z,4.12